Latest Weather Observations for Lucas Heights

IDN60801

Issued at 4:32 am EST Monday 24 July 2017 (issued every 30 minutes, with the page automatically refreshed every 10 minutes)

About weather observations | Map of weather stations | Latest weather observations for NSW | Other Formats
Station Details ID: 066023 Name: LUCAS HEIGHTS AWS Lat: -34.05 Lon: 150.98 Height: 140.0 m
Data from the previous 72 hours. | See also: Recent months for locations in New South Wales
Date/Time
EST
Temp
°C
App
Temp
°C
Dew
Point
°C
Rel
Hum
%
Delta-T
°C
Wind Press
QNH
hPa
Press
MSL
hPa
Rain since
9am
mm
Dir  Spd
km/h
Gust
km/h
Spd
kts
Gust
kts
24/04:15am 12.7 7.6 0.9 44 5.0 W 17 24 9 13 1016.1 - 0.0
24/04:00am 12.4 7.3 0.9 45 4.9 W 17 26 9 14 1016.0 - 0.0
24/03:45am 12.8 6.7 0.7 43 5.1 W 22 28 12 15 1015.9 - 0.0
24/03:30am 12.8 7.1 0.7 43 5.1 W 20 28 11 15 1016.0 - 0.0
24/03:15am 13.0 8.2 0.3 41 5.3 WSW 15 20 8 11 1016.1 - 0.0
24/03:00am 13.7 8.0 0.3 40 5.7 WSW 20 26 11 14 1016.1 - 0.0
24/02:45am 13.9 8.3 -0.2 38 5.9 W 19 30 10 16 1016.0 - 0.0
24/02:30am 14.0 8.3 -0.8 36 6.1 W 19 30 10 16 1016.1 - 0.0
24/02:15am 14.1 7.7 -1.6 34 6.4 WSW 22 30 12 16 1016.1 - 0.0
24/02:00am 14.1 8.2 -1.9 33 6.5 WSW 19 26 10 14 1016.0 - 0.0
24/01:45am 14.1 9.7 -2.1 32 6.5 WSW 11 22 6 12 1016.0 - 0.0
24/01:30am 13.3 10.7 -1.5 36 6.0 WSW 2 11 1 6 1016.1 - 0.0
24/01:15am 10.8 8.7 -1.0 44 4.7 CALM 0 0 0 0 1016.1 - 0.0
24/01:00am 10.9 8.7 -1.6 41 4.9 CALM 0 0 0 0 1015.8 - 0.0
24/12:45am 13.0 9.4 -2.4 34 6.1 WNW 7 17 4 9 1015.6 - 0.0
24/12:30am 13.4 7.9 -2.4 33 6.3 WNW 17 20 9 11 1015.3 - 0.0
24/12:15am 13.4 7.8 -2.7 32 6.4 WNW 17 20 9 11 1015.3 - 0.0
24/12:00am 13.8 7.9 -2.4 32 6.5 WNW 19 22 10 12 1015.3 - 0.0
 
Date/Time
EST
Temp
°C
App
Temp
°C
Dew
Point
°C
Rel
Hum
%
Delta-T
°C
Wind Press
QNH
hPa
Press
MSL
hPa
Rain since
9am
mm
Dir  Spd
km/h
Gust
km/h
Spd
kts
Gust
kts
23/11:45pm 13.8 7.7 -2.2 33 6.4 WNW 20 24 11 13 1015.1 - 0.0
23/11:30pm 14.1 7.6 -2.1 32 6.5 WNW 22 30 12 16 1015.0 - 0.0
23/11:15pm 14.3 8.4 -2.2 32 6.6 WNW 19 28 10 15 1015.0 - 0.0
23/11:00pm 14.8 8.9 -2.3 30 6.9 WNW 19 26 10 14 1015.1 - 0.0
23/10:45pm 15.1 9.6 -2.0 31 7.0 W 17 26 9 14 1015.1 - 0.0
23/10:30pm 14.6 8.6 -1.6 32 6.6 W 20 28 11 15 1015.2 - 0.0
23/10:15pm 14.3 8.5 -1.3 34 6.4 W 19 30 10 16 1015.1 - 0.0
23/10:00pm 14.4 8.1 -1.2 34 6.4 W 22 33 12 18 1014.9 - 0.0
23/09:45pm 14.5 7.8 -1.2 34 6.5 WNW 24 30 13 16 1014.8 - 0.0
23/09:30pm 15.0 8.7 -1.3 32 6.7 WNW 22 30 12 16 1014.8 - 0.0
23/09:15pm 15.2 9.8 -1.1 32 6.8 W 17 32 9 17 1014.8 - 0.0
23/09:00pm 15.0 10.4 -1.3 32 6.7 W 13 24 7 13 1014.8 - 0.0
23/08:45pm 15.5 10.1 -1.4 31 7.0 WSW 17 24 9 13 1014.7 - 0.0
23/08:30pm 15.7 10.0 -1.1 31 7.0 WSW 19 24 10 13 1014.6 - 0.0
23/08:15pm 15.5 9.6 -0.9 32 6.9 WSW 20 30 11 16 1014.5 - 0.0
23/08:00pm 15.5 10.6 -0.8 33 6.8 W 15 22 8 12 1014.5 - 0.0
23/07:45pm 15.1 12.6 -0.7 34 6.6 W 2 11 1 6 1014.4 - 0.0
23/07:30pm 15.3 11.9 -0.6 33 6.7 W 7 15 4 8 1014.3 - 0.0
23/07:15pm 15.5 10.6 -0.5 33 6.8 W 15 22 8 12 1014.1 - 0.0
23/07:00pm 15.4 12.1 -0.2 34 6.6 W 7 24 4 13 1014.0 - 0.0
23/06:45pm 14.6 12.6 0.1 37 6.2 CALM 0 6 0 3 1013.8 - 0.0
23/06:30pm 15.0 13.0 -0.2 35 6.4 CALM 0 0 0 0 1013.5 - 0.0
23/06:15pm 15.1 13.1 0.0 35 6.4 CALM 0 0 0 0 1013.4 - 0.0
23/06:00pm 15.3 13.4 0.4 36 6.4 CALM 0 7 0 4 1013.2 - 0.0
23/05:45pm 15.5 13.2 0.1 35 6.6 NNW 2 15 1 8 1013.0 - 0.0
23/05:30pm 15.8 13.8 0.1 34 6.7 CALM 0 7 0 4 1012.9 - 0.0
23/05:15pm 16.7 14.7 -0.3 31 7.3 CALM 0 4 0 2 1012.8 - 0.0
23/05:00pm 17.5 14.3 -0.7 29 7.8 NW 6 15 3 8 1012.8 - 0.0
23/04:45pm 18.8 16.2 -1.4 25 8.6 NW 2 15 1 8 1012.7 - 0.0
23/04:30pm 19.5 15.1 -2.3 23 9.2 NW 11 17 6 9 1012.7 - 0.0
23/04:15pm 19.9 16.4 -3.1 21 9.6 NW 6 15 3 8 1012.7 - 0.0
23/04:00pm 20.2 16.4 -3.7 19 9.9 WNW 7 19 4 10 1012.7 - 0.0
23/03:45pm 20.3 16.7 -3.3 20 9.9 WNW 6 22 3 12 1012.7 - 0.0
23/03:30pm 20.1 15.9 -3.7 20 9.8 NW 9 22 5 12 1012.7 - 0.0
23/03:15pm 19.9 14.9 -4.1 19 9.8 NW 13 30 7 16 1012.7 - 0.0
23/03:00pm 19.9 14.2 -4.1 19 9.8 NW 17 30 9 16 1012.7 - 0.0
23/02:45pm 19.9 14.9 -4.0 19 9.8 NW 13 26 7 14 1012.8 - 0.0
23/02:30pm 19.6 14.2 -4.5 19 9.8 NW 15 32 8 17 1013.0 - 0.0
23/02:15pm 19.7 13.6 -4.3 19 9.8 NW 19 32 10 17 1013.1 - 0.0
23/02:00pm 19.8 14.5 -4.0 19 9.7 WNW 15 28 8 15 1013.3 - 0.0
23/01:45pm 19.6 14.2 -4.1 20 9.7 WNW 15 33 8 18 1013.3 - 0.0
23/01:30pm 19.5 13.2 -4.4 19 9.7 WNW 20 35 11 19 1013.5 - 0.0
23/01:15pm 19.3 13.5 -4.2 20 9.5 W 17 33 9 18 1013.8 - 0.0
23/01:00pm 19.0 12.8 -4.5 20 9.5 W 19 35 10 19 1014.1 - 0.0
23/12:45pm 18.6 11.1 -4.8 20 9.3 W 26 35 14 19 1014.3 - 0.0
23/12:30pm 18.4 10.8 -5.3 19 9.3 W 26 41 14 22 1014.7 - 0.0
23/12:15pm 18.3 10.7 -5.7 19 9.3 W 26 35 14 19 1015.0 - 0.0
23/12:00pm 18.3 11.5 -5.5 19 9.3 W 22 39 12 21 1015.6 - 0.0
23/11:45am 17.9 11.7 -4.7 21 9.0 W 19 33 10 18 1015.9 - 0.0
23/11:30am 17.5 10.0 -4.8 21 8.8 W 26 39 14 21 1016.0 - 0.0
23/11:15am 16.9 8.0 -5.0 22 8.5 W 33 46 18 25 1016.1 - 0.0
23/11:00am 16.5 8.3 -4.1 24 8.1 W 30 44 16 24 1016.1 - 0.0
23/10:45am 15.8 8.0 -3.7 26 7.7 W 28 39 15 21 1016.2 - 0.0
23/10:30am 15.3 6.7 -4.1 26 7.6 W 32 46 17 25 1016.3 - 0.0
23/10:15am 15.0 7.6 -3.8 27 7.4 W 26 39 14 21 1016.5 - 0.0
23/10:00am 14.4 7.0 -3.9 28 7.1 W 26 39 14 21 1016.6 - 0.0
23/09:45am 13.7 7.1 -3.4 30 6.7 W 22 33 12 18 1016.9 - 0.0
23/09:30am 13.0 6.9 -2.1 35 6.0 W 20 28 11 15 1017.0 - 0.0
23/09:15am 12.5 7.8 -1.8 37 5.7 W 13 20 7 11 1017.1 - 0.0
23/09:00am 11.9 7.1 -2.3 37 5.6 W 13 26 7 14 1017.2 - 0.0
23/08:45am 11.4 5.8 -2.8 37 5.5 W 17 24 9 13 1017.2 - 0.0
23/08:30am 10.8 4.2 -3.4 37 5.4 W 22 28 12 15 1017.1 - 0.0
23/08:15am 10.8 3.4 -4.0 35 5.5 W 26 32 14 17 1017.1 - 0.0
23/08:00am 10.9 2.1 -4.2 34 5.6 WSW 33 43 18 23 1017.1 - 0.0
23/07:45am 10.7 1.5 -4.4 34 5.6 WSW 35 44 19 24 1016.9 - 0.0
23/07:30am 10.6 0.3 -4.3 35 5.5 WSW 41 50 22 27 1016.8 - 0.0
23/07:15am 9.7 0.9 -3.9 38 5.0 WSW 33 46 18 25 1016.6 - 0.0
23/07:00am 8.9 0.7 -4.0 40 4.7 W 30 37 16 20 1016.6 - 0.0
23/06:45am 8.5 0.7 -3.9 41 4.5 W 28 32 15 17 1016.7 - 0.0
23/06:30am 8.5 0.7 -4.1 40 4.5 WSW 28 33 15 18 1016.6 - 0.0
23/06:15am 9.1 0.9 -4.1 39 4.8 W 30 35 16 19 1016.6 - 0.0
23/06:00am 8.8 0.2 -3.8 41 4.6 W 32 35 17 19 1016.7 - 0.0
23/05:45am 8.3 -0.3 -3.9 42 4.4 W 32 35 17 19 1016.7 - 0.0
23/05:30am 7.9 -0.3 -4.0 42 4.3 W 30 32 16 17 1016.6 - 0.0
23/05:15am 8.0 0.1 -4.3 41 4.4 W 28 30 15 16 1016.6 - 0.0
23/05:00am 8.3 1.6 -4.6 40 4.6 W 22 30 12 16 1016.5 - 0.0
23/04:45am 8.7 1.2 -4.6 38 4.8 W 26 30 14 16 1016.6 - 0.0
23/04:30am 8.4 0.6 -4.0 41 4.5 W 28 32 15 17 1016.6 - 0.0
23/04:15am 8.1 0.7 -3.6 43 4.3 W 26 30 14 16 1016.6 - 0.0
23/04:00am 7.1 0.5 -3.2 48 3.7 W 22 28 12 15 1016.7 - 0.0
23/03:45am 6.3 1.4 -3.5 49 3.5 W 13 20 7 11 1016.7 - 0.0
23/03:30am 6.8 1.5 -3.2 49 3.6 W 15 26 8 14 1016.7 - 0.0
23/03:15am 5.5 -0.7 -3.1 54 3.1 W 20 26 11 14 1016.6 - 0.0
23/03:00am 6.0 0.7 -3.6 50 3.4 W 15 22 8 12 1016.7 - 0.0
23/02:45am 6.8 0.6 -3.2 49 3.6 W 20 32 11 17 1016.8 - 0.0
23/02:30am 6.2 1.6 -4.4 46 3.7 W 11 22 6 12 1016.9 - 0.0
23/02:15am 8.6 1.1 -4.7 38 4.7 WSW 26 32 14 17 1017.0 - 0.0
23/02:00am 8.2 0.3 -4.6 40 4.5 WSW 28 35 15 19 1017.1 - 0.0
23/01:45am 8.1 -0.2 -4.7 40 4.5 W 30 32 16 17 1017.3 - 0.0
23/01:30am 8.2 0.3 -4.6 40 4.5 W 28 32 15 17 1017.4 - 0.0
23/01:15am 7.8 0.7 -4.7 41 4.4 WSW 24 26 13 14 1017.6 - 0.0
23/01:00am 8.5 1.7 -4.9 38 4.7 W 22 24 12 13 1017.7 - 0.0
23/12:45am 8.9 2.1 -4.8 37 4.9 W 22 24 12 13 1017.8 - 0.0
23/12:30am 8.9 2.6 -4.4 39 4.8 WSW 20 24 11 13 1017.9 - 0.0
23/12:15am 9.1 2.9 -4.9 37 5.0 WSW 19 20 10 11 1018.0 - 0.0
23/12:00am 9.4 3.0 -4.5 37 5.0 WSW 20 24 11 13 1018.2 - 0.0
 
Date/Time
EST
Temp
°C
App
Temp
°C
Dew
Point
°C
Rel
Hum
%
Delta-T
°C
Wind Press
QNH
hPa
Press
MSL
hPa
Rain since
9am
mm
Dir  Spd
km/h
Gust
km/h
Spd
kts
Gust
kts
22/11:45pm 9.6 3.4 -4.7 36 5.2 W 19 24 10 13 1018.3 - 0.0
22/11:30pm 9.8 3.1 -4.6 36 5.2 W 22 24 12 13 1018.3 - 0.0
22/11:15pm 10.0 3.6 -4.8 35 5.4 W 20 24 11 13 1018.3 - 0.0
22/11:00pm 10.5 4.1 -5.1 33 5.6 W 20 24 11 13 1018.3 - 0.0
22/10:45pm 11.2 4.7 -5.5 30 6.0 W 20 26 11 14 1018.3 - 0.0
22/10:30pm 11.4 5.5 -5.5 30 6.1 W 17 20 9 11 1018.3 - 0.0
22/10:15pm 11.7 7.0 -5.5 29 6.2 W 11 17 6 9 1018.4 - 0.0
22/10:00pm 11.9 7.9 -5.4 29 6.3 W 7 17 4 9 1018.5 - 0.0
22/09:45pm 11.8 8.1 -4.9 31 6.2 W 6 11 3 6 1018.5 - 0.0
22/09:30pm 12.2 8.9 -4.2 31 6.2 W 4 9 2 5 1018.6 - 0.0
22/09:15pm 12.3 7.9 -2.6 35 5.8 W 11 20 6 11 1018.6 - 0.0
22/09:00pm 12.4 9.8 -1.7 37 5.6 W 2 11 1 6 1018.8 - 0.0
22/08:45pm 12.6 9.2 -0.4 40 5.4 W 7 17 4 9 1018.8 - 0.0
22/08:30pm 12.5 9.3 -0.3 41 5.3 W 6 15 3 8 1018.8 - 0.0
22/08:15pm 12.0 7.9 -0.5 42 5.1 W 11 17 6 9 1018.9 - 0.0
22/08:00pm 12.4 10.0 -0.5 41 5.3 W 2 9 1 5 1019.0 - 0.0
22/07:45pm 11.9 9.5 -0.6 42 5.1 W 2 7 1 4 1019.1 - 0.0
22/07:30pm 11.8 9.7 -0.9 41 5.1 CALM 0 4 0 2 1019.1 - 0.0
22/07:15pm 11.3 9.2 -0.7 43 4.8 CALM 0 2 0 1 1019.2 - 0.0
22/07:00pm 11.1 9.0 -0.5 44 4.7 CALM 0 2 0 1 1019.2 - 0.0
22/06:45pm 10.8 8.7 -0.6 45 4.6 CALM 0 0 0 0 1019.2 - 0.0
22/06:30pm 12.4 10.3 -1.1 39 5.5 CALM 0 0 0 0 1019.3 - 0.0
22/06:15pm 12.0 9.9 -1.0 40 5.3 CALM 0 2 0 1 1019.1 - 0.0
22/06:00pm 11.4 9.4 -0.2 44 4.7 CALM 0 6 0 3 1018.9 - 0.0
22/05:45pm 11.6 9.3 0.1 45 4.7 NNW 2 17 1 9 1018.8 - 0.0
22/05:30pm 12.5 8.9 0.3 43 5.1 NNW 9 17 5 9 1018.8 - 0.0
22/05:15pm 12.9 9.9 1.0 44 5.1 NNW 6 17 3 9 1018.9 - 0.0
22/05:00pm 13.7 11.9 1.1 42 5.4 CALM 0 6 0 3 1018.7 - 0.0
22/04:45pm 14.8 12.9 0.7 38 6.1 CALM 0 2 0 1 1018.5 - 0.0
22/04:30pm 15.6 13.6 -0.2 34 6.7 CALM 0 2 0 1 1018.5 - 0.0
22/04:15pm 16.0 13.8 -1.3 30 7.2 CALM 0 4 0 2 1018.4 - 0.0
22/04:00pm 16.4 14.3 -1.1 30 7.4 CALM 0 2 0 1 1018.4 - 0.0
22/03:45pm 16.4 14.2 -1.3 30 7.4 CALM 0 4 0 2 1018.5 - 0.0
22/03:30pm 16.4 14.2 -1.3 30 7.4 CALM 0 2 0 1 1018.6 - 0.0
22/03:15pm 16.6 14.3 -2.2 27 7.7 CALM 0 7 0 4 1018.7 - 0.0
22/03:00pm 16.6 14.2 -2.8 26 7.9 CALM 0 6 0 3 1018.8 - 0.0
22/02:45pm 16.6 14.2 -2.8 26 7.9 CALM 0 9 0 5 1018.9 - 0.0
22/02:30pm 16.1 14.0 -1.1 31 7.2 CALM 0 6 0 3 1019.0 - 0.0
22/02:15pm 15.8 13.7 -0.5 33 6.9 CALM 0 2 0 1 1019.2 - 0.0
22/02:00pm 15.8 13.7 -0.7 32 7.0 CALM 0 4 0 2 1019.4 - 0.0
22/01:45pm 15.5 13.5 -0.4 33 6.7 CALM 0 2 0 1 1019.7 - 0.0
22/01:30pm 15.1 13.0 -0.7 34 6.6 CALM 0 4 0 2 1019.8 - 0.0
22/01:15pm 14.9 12.9 -0.4 35 6.4 CALM 0 2 0 1 1019.9 - 0.0
22/01:00pm 14.6 12.6 0.2 37 6.1 CALM 0 9 0 5 1020.2 - 0.0
22/12:45pm 14.1 12.3 0.9 40 5.7 CALM 0 4 0 2 1020.5 - 0.0
22/12:30pm 13.8 12.0 1.2 42 5.4 CALM 0 7 0 4 1020.7 - 0.0
22/12:15pm 13.5 11.4 1.5 44 5.2 WNW 2 15 1 8 1021.0 - 0.0
22/12:00pm 13.1 11.3 1.4 45 5.0 CALM 0 4 0 2 1021.4 - 0.0
22/11:45am 12.8 11.1 1.7 47 4.8 CALM 0 4 0 2 1021.7 - 0.0
22/11:30am 12.2 10.4 1.0 46 4.7 CALM 0 7 0 4 1022.0 - 0.0
22/11:15am 12.2 10.4 1.1 46 4.7 CALM 0 2 0 1 1022.3 - 0.0
22/11:00am 11.9 10.1 1.2 48 4.5 CALM 0 4 0 2 1022.6 - 0.0
22/10:45am 11.6 9.5 1.4 49 4.3 WNW 2 11 1 6 1022.9 - 0.0
22/10:30am 11.7 10.0 1.6 50 4.3 CALM 0 7 0 4 1023.1 - 0.0
22/10:15am 11.4 9.6 1.2 49 4.3 CALM 0 0 0 0 1023.2 - 0.0
22/10:00am 11.3 9.5 0.9 48 4.4 CALM 0 9 0 5 1023.4 - 0.0
22/09:45am 11.2 9.3 0.8 48 4.3 CALM 0 2 0 1 1023.5 - 0.0
22/09:30am 10.9 9.1 1.2 51 4.1 CALM 0 4 0 2 1023.7 - 0.0
22/09:15am 10.0 6.8 0.8 53 3.8 SW 7 17 4 9 1023.8 - 0.0
22/09:00am 9.5 7.3 0.8 54 3.6 WSW 2 11 1 6 1023.7 - 0.0
22/08:45am 9.0 7.2 1.2 58 3.2 CALM 0 7 0 4 1023.7 - 0.0
22/08:30am 8.3 6.5 1.4 62 2.8 CALM 0 2 0 1 1023.6 - 0.0
22/08:15am 7.6 5.8 1.2 64 2.6 CALM 0 0 0 0 1023.6 - 0.0
22/08:00am 6.9 3.9 0.7 64 2.5 SW 6 20 3 11 1023.8 - 0.0
22/07:45am 6.4 0.9 0.5 66 2.3 SW 19 22 10 12 1023.8 - 0.0
22/07:30am 5.8 0.3 0.9 71 1.9 SW 19 24 10 13 1023.7 - 0.0
22/07:15am 4.3 1.6 0.1 74 1.6 WSW 4 17 2 9 1023.7 - 0.0
22/07:00am 4.4 2.3 -0.5 70 1.8 CALM 0 0 0 0 1023.4 - 0.0
22/06:45am 5.1 3.0 -0.5 67 2.1 CALM 0 0 0 0 1023.2 - 0.0
22/06:30am 5.9 3.2 0.1 66 2.3 SW 4 11 2 6 1023.0 - 0.0
22/06:15am 6.2 2.2 0.4 66 2.3 SW 11 20 6 11 1022.9 - 0.0
22/06:00am 6.1 0.4 0.8 69 2.1 SW 20 22 11 12 1022.9 - 0.0
22/05:45am 5.7 0.1 1.1 72 1.8 SW 20 22 11 12 1022.9 - 0.0
22/05:30am 4.9 1.3 0.8 75 1.6 SW 9 19 5 10 1022.7 - 0.0
22/05:15am 4.9 -0.2 0.8 75 1.6 SSW 17 20 9 11 1022.6 - 0.0
22/05:00am 5.1 0.0 0.5 72 1.8 SW 17 20 9 11 1022.6 - 0.0
22/04:45am 6.2 1.2 1.3 71 2.0 SSW 17 19 9 10 1022.5 - 0.0
22/04:30am 6.1 1.2 1.7 73 1.8 SSW 17 19 9 10 1022.4 - 0.0
22/04:15am 6.0 1.0 1.5 73 1.8 SSW 17 19 9 10 1022.3 - 0.0
22/04:00am 6.2 1.7 2.0 74 1.7 SSW 15 20 8 11 1022.4 - 0.0
22/03:45am 6.5 3.7 2.1 73 1.8 SSW 6 17 3 9 1022.4 - 0.0
22/03:30am 6.6 2.3 3.2 79 1.4 SSW 15 20 8 11 1022.5 - 0.0
22/03:15am 5.1 0.2 2.3 82 1.1 SSW 17 20 9 11 1022.5 - 0.0
22/03:00am 4.5 -0.4 1.7 82 1.1 SSW 17 19 9 10 1022.6 - 0.0
22/02:45am 4.7 0.1 1.8 81 1.2 SSW 15 19 8 10 1022.6 - 0.0
22/02:30am 4.9 0.4 2.1 82 1.1 SSW 15 17 8 9 1022.7 - 0.0
22/02:15am 4.6 -0.4 1.6 81 1.2 SSW 17 20 9 11 1022.7 - 0.0
22/02:00am 4.7 0.1 1.5 80 1.3 SSW 15 19 8 10 1022.7 - 0.0
22/01:45am 5.3 0.7 1.8 78 1.4 SSW 15 19 8 10 1022.7 - 0.0
22/01:30am 5.7 0.8 2.0 77 1.5 SSW 17 19 9 10 1022.8 - 0.0
22/01:15am 6.3 2.6 2.3 75 1.6 SSW 11 17 6 9 1022.8 - 0.0
22/01:00am 6.7 2.7 2.6 75 1.7 SSW 13 19 7 10 1022.9 - 0.0
22/12:45am 6.9 2.5 2.9 76 1.7 SSW 15 19 8 10 1023.0 - 0.0
22/12:30am 6.9 2.6 3.0 76 1.6 SSW 15 17 8 9 1023.1 - 0.0
22/12:15am 6.6 2.2 2.7 76 1.6 SSW 15 17 8 9 1023.2 - 0.0
22/12:00am 6.6 2.1 2.4 74 1.7 SSW 15 19 8 10 1023.5 - 0.0
 
Date/Time
EST
Temp
°C
App
Temp
°C
Dew
Point
°C
Rel
Hum
%
Delta-T
°C
Wind Press
QNH
hPa
Press
MSL
hPa
Rain since
9am
mm
Dir  Spd
km/h
Gust
km/h
Spd
kts
Gust
kts
21/11:45pm 7.0 4.1 2.7 74 1.8 SSW 7 15 4 8 1023.6 - 0.0
21/11:30pm 7.2 5.7 2.8 73 1.9 CALM 0 0 0 0 1023.6 - 0.0
21/11:15pm 7.3 5.8 2.9 73 1.9 CALM 0 0 0 0 1023.6 - 0.0
21/11:00pm 7.2 5.6 2.7 73 1.9 CALM 0 0 0 0 1023.5 - 0.0
21/10:45pm 7.5 6.0 2.9 72 1.9 CALM 0 0 0 0 1023.4 - 0.0
21/10:30pm 7.7 6.2 2.8 71 2.1 CALM 0 0 0 0 1023.3 - 0.0
21/10:15pm 8.1 6.7 3.4 72 2.0 CALM 0 2 0 1 1023.1 - 0.0
21/10:00pm 7.4 6.0 3.4 76 1.7 CALM 0 0 0 0 1023.1 - 0.0
21/09:45pm 7.0 5.6 3.3 77 1.6 CALM 0 4 0 2 1023.0 - 0.0
21/09:30pm 6.6 4.3 2.9 77 1.6 S 4 15 2 8 1023.0 - 0.0
21/09:15pm 6.7 3.5 2.8 76 1.6 S 9 17 5 9 1023.1 - 0.0
21/09:00pm 7.0 2.2 2.8 74 1.8 S 17 19 9 10 1023.0 - 0.0
21/08:45pm 7.3 2.9 2.7 72 1.9 S 15 19 8 10 1022.9 - 0.0
21/08:30pm 8.1 3.3 2.6 68 2.3 S 17 20 9 11 1022.9 - 0.0
21/08:15pm 9.1 4.8 3.1 66 2.6 S 15 19 8 10 1022.9 - 0.0
21/08:00pm 9.5 4.8 3.4 65 2.7 S 17 20 9 11 1022.8 - 0.0
21/07:45pm 9.7 5.1 3.5 65 2.7 S 17 20 9 11 1022.8 - 0.0
21/07:30pm 9.8 5.2 3.6 65 2.7 S 17 20 9 11 1022.7 - 0.0
21/07:15pm 9.5 5.5 3.1 64 2.8 S 13 20 7 11 1022.6 - 0.0
21/07:00pm 10.0 5.7 3.0 62 3.0 S 15 19 8 10 1022.5 - 0.0
21/06:45pm 10.4 6.8 3.0 60 3.2 S 11 17 6 9 1022.5 - 0.0
21/06:30pm 10.7 6.4 3.1 59 3.3 S 15 19 8 10 1022.5 - 0.0
21/06:15pm 10.8 6.5 3.3 60 3.3 S 15 20 8 11 1022.3 - 0.0
21/06:00pm 10.8 6.5 3.3 60 3.3 S 15 19 8 10 1022.2 - 0.0
21/05:45pm 10.8 6.9 3.2 59 3.3 S 13 19 7 10 1022.1 - 0.0
21/05:30pm 11.1 7.5 3.0 57 3.6 S 11 17 6 9 1022.0 - 0.0
21/05:15pm 12.0 8.8 2.9 53 4.0 S 9 17 5 9 1021.8 - 0.0
21/05:00pm 12.9 9.3 2.9 50 4.4 S 11 20 6 11 1021.6 - 0.0
21/04:45pm 13.7 9.7 3.0 48 4.8 SSE 13 17 7 9 1021.4 - 0.0
21/04:30pm 14.1 9.7 2.9 47 5.0 SSE 15 20 8 11 1021.3 - 0.0
21/04:15pm 14.3 11.1 2.9 46 5.1 SSE 9 22 5 12 1021.2 - 0.0
21/04:00pm 15.0 12.1 2.5 43 5.6 SSE 7 22 4 12 1021.0 - 0.0
21/03:45pm 15.1 11.3 1.9 41 5.9 S 11 22 6 12 1020.9 - 0.0
21/03:30pm 15.4 13.0 2.4 41 5.8 S 4 15 2 8 1020.7 - 0.0
21/03:15pm 15.2 10.3 1.9 40 5.9 SSE 17 28 9 15 1020.6 - 0.0
21/03:00pm 15.7 11.6 2.1 40 6.1 S 13 26 7 14 1020.6 - 0.0
21/02:45pm 15.7 13.6 2.0 39 6.1 S 2 17 1 9 1020.5 - 0.0
21/02:30pm 15.5 11.3 1.9 40 6.1 S 13 24 7 13 1020.5 - 0.0
21/02:15pm 15.3 10.8 2.0 40 5.9 S 15 24 8 13 1020.4 - 0.0
21/02:00pm 15.3 10.0 2.0 40 5.9 S 19 26 10 14 1020.4 - 0.0
21/01:45pm 15.2 10.7 2.0 41 5.9 S 15 26 8 14 1020.4 - 0.0
21/01:30pm 15.5 10.6 1.8 39 6.1 S 17 26 9 14 1020.3 - 0.0
21/01:15pm 15.3 10.0 1.8 40 6.0 S 19 28 10 15 1020.3 - 0.0
21/01:00pm 15.4 11.0 2.9 43 5.7 S 15 26 8 14 1020.4 - 0.0
21/12:45pm 15.5 11.2 3.0 43 5.7 S 15 24 8 13 1020.5 - 0.0
21/12:30pm 15.2 10.5 3.2 44 5.5 SSW 17 26 9 14 1020.7 - 0.0
21/12:15pm 14.8 10.1 3.2 45 5.3 S 17 30 9 16 1020.9 - 0.0
21/12:00pm 14.8 9.7 3.3 46 5.2 S 19 32 10 17 1021.1 - 0.0
21/11:45am 14.8 9.8 3.5 46 5.2 S 19 30 10 16 1021.2 - 0.0
21/11:30am 14.3 9.1 3.4 48 5.0 SSW 20 30 11 16 1021.3 - 0.0
21/11:15am 13.5 9.2 3.3 50 4.6 SW 15 26 8 14 1021.3 - 0.0
21/11:00am 12.9 7.8 3.1 51 4.4 SW 19 26 10 14 1021.3 - 0.0
21/10:45am 12.4 7.1 2.9 52 4.2 SW 20 28 11 15 1021.3 - 0.0
21/10:30am 11.8 6.4 2.7 53 4.0 SW 20 30 11 16 1021.3 - 0.0
21/10:15am 11.3 5.5 2.5 54 3.8 SW 22 32 12 17 1021.2 - 0.0
21/10:00am 10.9 5.7 2.3 55 3.7 SW 19 28 10 15 1021.2 - 0.0
21/09:45am 10.2 4.9 1.9 56 3.5 SW 19 26 10 14 1021.1 - 0.0
21/09:30am 9.5 4.1 1.4 57 3.4 SW 19 28 10 15 1020.9 - 0.0
21/09:15am 9.0 3.6 1.1 57 3.3 SW 19 26 10 14 1020.7 - 0.0
21/09:00am 8.3 2.2 0.7 59 3.1 SW 22 35 12 19 1020.6 - 0.0
21/08:45am 7.9 1.8 0.4 59 3.0 SW 22 32 12 17 1020.5 - 0.0
21/08:30am 7.4 0.9 0.2 60 2.9 SW 24 33 13 18 1020.4 - 0.0
21/08:15am 6.9 0.0 0.1 62 2.7 SW 26 35 14 19 1020.2 - 0.0
21/08:00am 6.3 -0.7 -0.2 63 2.5 SW 26 35 14 19 1020.0 - 0.0
21/07:45am 6.2 -0.8 -0.4 62 2.5 SW 26 35 14 19 1019.8 - 0.0
21/07:30am 6.0 -1.4 -0.4 63 2.5 SW 28 37 15 20 1019.7 - 0.0
21/07:15am 5.9 -1.1 -0.4 64 2.4 SW 26 33 14 18 1019.7 - 0.0
21/07:00am 5.8 -0.8 -0.4 64 2.4 SW 24 32 13 17 1019.7 - 0.0
21/06:45am 5.7 -0.2 -0.5 64 2.4 SW 20 32 11 17 1019.5 - 0.0
21/06:30am 5.7 -0.2 -0.5 64 2.4 SW 20 30 11 16 1019.2 - 0.0
21/06:15am 5.9 -0.3 -0.5 63 2.4 SW 22 30 12 16 1018.9 - 0.0
21/06:00am 5.9 -0.3 -0.3 64 2.4 WSW 22 30 12 16 1018.8 - 0.0
21/05:45am 5.8 0.1 -0.4 64 2.4 WSW 19 28 10 15 1018.6 - 0.0
21/05:30am 6.1 -0.1 -0.3 63 2.5 WSW 22 30 12 16 1018.3 - 0.0
21/05:15am 6.4 -0.5 0.0 63 2.5 SW 26 32 14 17 1018.1 - 0.0
21/05:00am 6.3 -0.6 0.2 65 2.4 SW 26 35 14 19 1018.0 - 0.0
21/04:45am 6.4 -0.4 0.5 66 2.3 SW 26 35 14 19 1017.9 - 0.0

Other Formats:

Comma delimited format used in spreadsheet applications
http://www.bom.gov.au/fwo/IDN60801/IDN60801.95757.axf

JavaScript Object Notation format (JSON) in row-major order
http://www.bom.gov.au/fwo/IDN60801/IDN60801.95757.json